sensor_id;sensor_type;location;lat;lon;timestamp;P1;durP1;ratioP1;P2;durP2;ratioP2
39256;SDS011;24958;48.066;11.038;2022-07-11T00:01:45;1.57;;;1.47;;
39256;SDS011;24958;48.066;11.038;2022-07-11T00:04:11;1.60;;;1.50;;
39256;SDS011;24958;48.066;11.038;2022-07-11T00:06:37;1.40;;;1.27;;
39256;SDS011;24958;48.066;11.038;2022-07-11T00:09:03;3.00;;;1.70;;
39256;SDS011;24958;48.066;11.038;2022-07-11T00:11:29;1.57;;;1.47;;
39256;SDS011;24958;48.066;11.038;2022-07-11T00:13:54;1.93;;;1.60;;
39256;SDS011;24958;48.066;11.038;2022-07-11T00:16:20;2.50;;;1.80;;
39256;SDS011;24958;48.066;11.038;2022-07-11T00:18:46;2.50;;;1.80;;
39256;SDS011;24958;48.066;11.038;2022-07-11T00:21:12;1.67;;;1.40;;
39256;SDS011;24958;48.066;11.038;2022-07-11T00:23:38;2.22;;;1.73;;
39256;SDS011;24958;48.066;11.038;2022-07-11T00:26:04;1.70;;;1.60;;
39256;SDS011;24958;48.066;11.038;2022-07-11T00:28:30;2.00;;;1.90;;
39256;SDS011;24958;48.066;11.038;2022-07-11T00:30:56;1.50;;;1.40;;
39256;SDS011;24958;48.066;11.038;2022-07-11T00:33:22;1.60;;;1.50;;
39256;SDS011;24958;48.066;11.038;2022-07-11T00:35:48;1.67;;;1.57;;
39256;SDS011;24958;48.066;11.038;2022-07-11T00:38:15;1.70;;;1.60;;
39256;SDS011;24958;48.066;11.038;2022-07-11T00:40:41;2.50;;;1.50;;
39256;SDS011;24958;48.066;11.038;2022-07-11T00:43:06;2.90;;;1.40;;
39256;SDS011;24958;48.066;11.038;2022-07-11T00:45:32;2.33;;;1.40;;
39256;SDS011;24958;48.066;11.038;2022-07-11T00:47:58;1.87;;;1.50;;
39256;SDS011;24958;48.066;11.038;2022-07-11T00:50:25;2.00;;;1.40;;
39256;SDS011;24958;48.066;11.038;2022-07-11T00:52:51;1.80;;;1.70;;
39256;SDS011;24958;48.066;11.038;2022-07-11T00:55:18;2.03;;;1.40;;
39256;SDS011;24958;48.066;11.038;2022-07-11T00:57:44;1.60;;;1.50;;
39256;SDS011;24958;48.066;11.038;2022-07-11T01:00:10;1.53;;;1.43;;
39256;SDS011;24958;48.066;11.038;2022-07-11T01:02:37;1.50;;;1.40;;
39256;SDS011;24958;48.066;11.038;2022-07-11T01:05:03;1.70;;;1.53;;
39256;SDS011;24958;48.066;11.038;2022-07-11T01:07:30;1.93;;;1.60;;
39256;SDS011;24958;48.066;11.038;2022-07-11T01:09:56;2.60;;;1.60;;
39256;SDS011;24958;48.066;11.038;2022-07-11T01:12:22;2.13;;;1.47;;
39256;SDS011;24958;48.066;11.038;2022-07-11T01:14:51;2.97;;;1.70;;
39256;SDS011;24958;48.066;11.038;2022-07-11T01:17:18;1.97;;;1.57;;
39256;SDS011;24958;48.066;11.038;2022-07-11T01:19:44;1.50;;;1.40;;
39256;SDS011;24958;48.066;11.038;2022-07-11T01:22:10;2.23;;;2.03;;
39256;SDS011;24958;48.066;11.038;2022-07-11T01:24:37;1.67;;;1.57;;
39256;SDS011;24958;48.066;11.038;2022-07-11T01:27:04;1.60;;;1.50;;
39256;SDS011;24958;48.066;11.038;2022-07-11T01:29:30;1.57;;;1.47;;
39256;SDS011;24958;48.066;11.038;2022-07-11T01:31:56;1.60;;;1.47;;
39256;SDS011;24958;48.066;11.038;2022-07-11T01:34:22;1.93;;;1.50;;
39256;SDS011;24958;48.066;11.038;2022-07-11T01:36:48;1.43;;;1.33;;
39256;SDS011;24958;48.066;11.038;2022-07-11T01:39:14;1.77;;;1.50;;
39256;SDS011;24958;48.066;11.038;2022-07-11T01:41:40;2.47;;;1.87;;
39256;SDS011;24958;48.066;11.038;2022-07-11T01:44:06;1.47;;;1.37;;
39256;SDS011;24958;48.066;11.038;2022-07-11T01:46:32;1.63;;;1.53;;
39256;SDS011;24958;48.066;11.038;2022-07-11T01:48:58;2.20;;;1.80;;
39256;SDS011;24958;48.066;11.038;2022-07-11T01:51:24;1.70;;;1.33;;
39256;SDS011;24958;48.066;11.038;2022-07-11T01:53:50;2.30;;;1.50;;
39256;SDS011;24958;48.066;11.038;2022-07-11T01:56:18;1.93;;;1.60;;
39256;SDS011;24958;48.066;11.038;2022-07-11T01:58:43;1.83;;;1.73;;
39256;SDS011;24958;48.066;11.038;2022-07-11T02:01:09;2.15;;;1.95;;
39256;SDS011;24958;48.066;11.038;2022-07-11T02:03:35;2.83;;;1.57;;
39256;SDS011;24958;48.066;11.038;2022-07-11T02:06:02;2.00;;;1.60;;
39256;SDS011;24958;48.066;11.038;2022-07-11T02:08:28;1.70;;;1.60;;
39256;SDS011;24958;48.066;11.038;2022-07-11T02:10:54;1.87;;;1.50;;
39256;SDS011;24958;48.066;11.038;2022-07-11T02:13:21;2.33;;;1.70;;
39256;SDS011;24958;48.066;11.038;2022-07-11T02:15:48;1.60;;;1.50;;
39256;SDS011;24958;48.066;11.038;2022-07-11T02:18:15;4.17;;;1.90;;
39256;SDS011;24958;48.066;11.038;2022-07-11T02:20:42;1.40;;;1.30;;
39256;SDS011;24958;48.066;11.038;2022-07-11T02:23:11;2.43;;;1.50;;
39256;SDS011;24958;48.066;11.038;2022-07-11T02:25:37;1.30;;;1.20;;
39256;SDS011;24958;48.066;11.038;2022-07-11T02:28:09;1.30;;;1.20;;
39256;SDS011;24958;48.066;11.038;2022-07-11T02:30:36;3.33;;;1.40;;
39256;SDS011;24958;48.066;11.038;2022-07-11T02:33:02;1.30;;;1.20;;
39256;SDS011;24958;48.066;11.038;2022-07-11T02:35:28;1.60;;;1.50;;
39256;SDS011;24958;48.066;11.038;2022-07-11T02:37:54;2.13;;;1.40;;
39256;SDS011;24958;48.066;11.038;2022-07-11T02:40:20;1.77;;;1.67;;
39256;SDS011;24958;48.066;11.038;2022-07-11T02:42:46;1.57;;;1.47;;
39256;SDS011;24958;48.066;11.038;2022-07-11T02:45:12;1.50;;;1.40;;
39256;SDS011;24958;48.066;11.038;2022-07-11T02:47:38;1.60;;;1.50;;
39256;SDS011;24958;48.066;11.038;2022-07-11T02:50:06;2.80;;;1.37;;
39256;SDS011;24958;48.066;11.038;2022-07-11T02:52:32;1.57;;;1.40;;
39256;SDS011;24958;48.066;11.038;2022-07-11T02:54:58;1.67;;;1.57;;
39256;SDS011;24958;48.066;11.038;2022-07-11T02:57:24;1.60;;;1.50;;
39256;SDS011;24958;48.066;11.038;2022-07-11T02:59:50;1.87;;;1.20;;
39256;SDS011;24958;48.066;11.038;2022-07-11T03:02:16;1.70;;;1.47;;
39256;SDS011;24958;48.066;11.038;2022-07-11T03:04:42;1.80;;;1.60;;
39256;SDS011;24958;48.066;11.038;2022-07-11T03:07:08;1.50;;;1.40;;
39256;SDS011;24958;48.066;11.038;2022-07-11T03:09:34;1.60;;;1.50;;
39256;SDS011;24958;48.066;11.038;2022-07-11T03:12:00;2.43;;;1.70;;
39256;SDS011;24958;48.066;11.038;2022-07-11T03:14:26;1.83;;;1.30;;
39256;SDS011;24958;48.066;11.038;2022-07-11T03:16:52;1.73;;;1.57;;
39256;SDS011;24958;48.066;11.038;2022-07-11T03:19:19;1.60;;;1.50;;
39256;SDS011;24958;48.066;11.038;2022-07-11T03:21:45;1.50;;;1.40;;
39256;SDS011;24958;48.066;11.038;2022-07-11T03:24:11;1.60;;;1.50;;
39256;SDS011;24958;48.066;11.038;2022-07-11T03:26:37;2.17;;;1.70;;
39256;SDS011;24958;48.066;11.038;2022-07-11T03:29:03;1.37;;;1.27;;
39256;SDS011;24958;48.066;11.038;2022-07-11T03:31:29;1.80;;;1.50;;
39256;SDS011;24958;48.066;11.038;2022-07-11T03:33:56;1.40;;;1.30;;
39256;SDS011;24958;48.066;11.038;2022-07-11T03:36:22;1.80;;;1.70;;
39256;SDS011;24958;48.066;11.038;2022-07-11T03:38:48;1.40;;;1.30;;
39256;SDS011;24958;48.066;11.038;2022-07-11T03:41:13;2.40;;;1.53;;
39256;SDS011;24958;48.066;11.038;2022-07-11T03:43:39;1.73;;;1.60;;
39256;SDS011;24958;48.066;11.038;2022-07-11T03:46:05;1.70;;;1.60;;
39256;SDS011;24958;48.066;11.038;2022-07-11T03:48:32;1.30;;;1.20;;
39256;SDS011;24958;48.066;11.038;2022-07-11T03:50:58;2.07;;;1.47;;
39256;SDS011;24958;48.066;11.038;2022-07-11T03:53:24;1.70;;;1.60;;
39256;SDS011;24958;48.066;11.038;2022-07-11T03:55:50;1.97;;;1.60;;
39256;SDS011;24958;48.066;11.038;2022-07-11T03:58:16;1.87;;;1.67;;
39256;SDS011;24958;48.066;11.038;2022-07-11T04:00:42;1.83;;;1.73;;
39256;SDS011;24958;48.066;11.038;2022-07-11T04:03:08;1.90;;;1.57;;
39256;SDS011;24958;48.066;11.038;2022-07-11T04:05:34;3.83;;;1.70;;
39256;SDS011;24958;48.066;11.038;2022-07-11T04:08:00;1.53;;;1.43;;
39256;SDS011;24958;48.066;11.038;2022-07-11T04:10:26;1.50;;;1.40;;
39256;SDS011;24958;48.066;11.038;2022-07-11T04:12:52;1.57;;;1.47;;
39256;SDS011;24958;48.066;11.038;2022-07-11T04:15:18;2.03;;;1.60;;
39256;SDS011;24958;48.066;11.038;2022-07-11T04:17:44;4.00;;;1.97;;
39256;SDS011;24958;48.066;11.038;2022-07-11T04:20:10;1.50;;;1.40;;
39256;SDS011;24958;48.066;11.038;2022-07-11T04:22:36;1.50;;;1.40;;
39256;SDS011;24958;48.066;11.038;2022-07-11T04:25:02;1.60;;;1.50;;
39256;SDS011;24958;48.066;11.038;2022-07-11T04:27:28;1.60;;;1.50;;
39256;SDS011;24958;48.066;11.038;2022-07-11T04:29:54;3.23;;;1.73;;
39256;SDS011;24958;48.066;11.038;2022-07-11T04:32:20;1.50;;;1.40;;
39256;SDS011;24958;48.066;11.038;2022-07-11T04:34:46;2.87;;;1.87;;
39256;SDS011;24958;48.066;11.038;2022-07-11T04:37:12;2.37;;;2.00;;
39256;SDS011;24958;48.066;11.038;2022-07-11T04:39:38;3.00;;;1.90;;
39256;SDS011;24958;48.066;11.038;2022-07-11T04:42:04;2.10;;;1.60;;
39256;SDS011;24958;48.066;11.038;2022-07-11T04:44:31;1.97;;;1.70;;
39256;SDS011;24958;48.066;11.038;2022-07-11T04:46:57;2.23;;;2.00;;
39256;SDS011;24958;48.066;11.038;2022-07-11T04:49:23;1.80;;;1.70;;
39256;SDS011;24958;48.066;11.038;2022-07-11T04:51:49;2.20;;;2.10;;
39256;SDS011;24958;48.066;11.038;2022-07-11T04:54:15;2.00;;;1.90;;
39256;SDS011;24958;48.066;11.038;2022-07-11T04:56:41;2.63;;;2.20;;
39256;SDS011;24958;48.066;11.038;2022-07-11T04:59:08;1.70;;;1.60;;
39256;SDS011;24958;48.066;11.038;2022-07-11T05:01:34;2.00;;;1.90;;
39256;SDS011;24958;48.066;11.038;2022-07-11T05:04:01;2.30;;;2.10;;
39256;SDS011;24958;48.066;11.038;2022-07-11T05:06:28;2.10;;;1.90;;
39256;SDS011;24958;48.066;11.038;2022-07-11T05:08:54;2.10;;;1.90;;
39256;SDS011;24958;48.066;11.038;2022-07-11T05:11:20;4.40;;;2.00;;
39256;SDS011;24958;48.066;11.038;2022-07-11T05:13:46;1.90;;;1.80;;
39256;SDS011;24958;48.066;11.038;2022-07-11T05:16:12;2.17;;;1.90;;
39256;SDS011;24958;48.066;11.038;2022-07-11T05:18:38;1.97;;;1.80;;
39256;SDS011;24958;48.066;11.038;2022-07-11T05:21:05;3.07;;;1.97;;
39256;SDS011;24958;48.066;11.038;2022-07-11T05:23:31;1.90;;;1.80;;
39256;SDS011;24958;48.066;11.038;2022-07-11T05:25:57;2.30;;;1.90;;
39256;SDS011;24958;48.066;11.038;2022-07-11T05:28:23;2.08;;;1.88;;
39256;SDS011;24958;48.066;11.038;2022-07-11T05:30:49;2.00;;;1.90;;
39256;SDS011;24958;48.066;11.038;2022-07-11T05:33:15;2.35;;;1.90;;
39256;SDS011;24958;48.066;11.038;2022-07-11T05:35:41;3.05;;;1.67;;
39256;SDS011;24958;48.066;11.038;2022-07-11T05:38:07;1.80;;;1.70;;
39256;SDS011;24958;48.066;11.038;2022-07-11T05:40:32;1.98;;;1.80;;
39256;SDS011;24958;48.066;11.038;2022-07-11T05:42:58;2.00;;;1.80;;
39256;SDS011;24958;48.066;11.038;2022-07-11T05:45:26;1.98;;;1.60;;
39256;SDS011;24958;48.066;11.038;2022-07-11T05:47:51;1.92;;;1.77;;
39256;SDS011;24958;48.066;11.038;2022-07-11T05:50:17;2.47;;;1.88;;
39256;SDS011;24958;48.066;11.038;2022-07-11T05:52:43;2.22;;;1.90;;
39256;SDS011;24958;48.066;11.038;2022-07-11T05:55:09;2.83;;;2.17;;
39256;SDS011;24958;48.066;11.038;2022-07-11T05:57:35;2.75;;;1.90;;
39256;SDS011;24958;48.066;11.038;2022-07-11T06:00:01;2.33;;;2.08;;
39256;SDS011;24958;48.066;11.038;2022-07-11T06:02:28;2.20;;;1.65;;
39256;SDS011;24958;48.066;11.038;2022-07-11T06:04:54;2.60;;;2.00;;
39256;SDS011;24958;48.066;11.038;2022-07-11T06:07:19;2.42;;;2.15;;
39256;SDS011;24958;48.066;11.038;2022-07-11T06:10:06;2.80;;;1.80;;
39256;SDS011;24958;48.066;11.038;2022-07-11T06:12:32;2.90;;;2.25;;
39256;SDS011;24958;48.066;11.038;2022-07-11T06:14:58;2.63;;;1.80;;
39256;SDS011;24958;48.066;11.038;2022-07-11T06:17:24;2.20;;;1.88;;
39256;SDS011;24958;48.066;11.038;2022-07-11T06:19:50;1.75;;;1.63;;
39256;SDS011;24958;48.066;11.038;2022-07-11T06:22:16;1.65;;;1.52;;
39256;SDS011;24958;48.066;11.038;2022-07-11T06:24:41;1.88;;;1.63;;
39256;SDS011;24958;48.066;11.038;2022-07-11T06:27:07;2.45;;;1.50;;
39256;SDS011;24958;48.066;11.038;2022-07-11T06:29:33;1.95;;;1.70;;
39256;SDS011;24958;48.066;11.038;2022-07-11T06:31:59;2.08;;;1.70;;
39256;SDS011;24958;48.066;11.038;2022-07-11T06:34:25;2.42;;;1.30;;
39256;SDS011;24958;48.066;11.038;2022-07-11T06:36:51;1.35;;;1.20;;
39256;SDS011;24958;48.066;11.038;2022-07-11T06:39:17;2.85;;;1.30;;
39256;SDS011;24958;48.066;11.038;2022-07-11T06:41:43;3.80;;;1.50;;
39256;SDS011;24958;48.066;11.038;2022-07-11T06:44:09;2.55;;;1.63;;
39256;SDS011;24958;48.066;11.038;2022-07-11T06:46:35;2.15;;;1.65;;
39256;SDS011;24958;48.066;11.038;2022-07-11T06:49:01;2.50;;;1.30;;
39256;SDS011;24958;48.066;11.038;2022-07-11T06:51:30;1.95;;;1.38;;
39256;SDS011;24958;48.066;11.038;2022-07-11T06:53:56;1.88;;;1.30;;
39256;SDS011;24958;48.066;11.038;2022-07-11T06:56:22;2.95;;;1.55;;
39256;SDS011;24958;48.066;11.038;2022-07-11T06:58:48;1.83;;;1.30;;
39256;SDS011;24958;48.066;11.038;2022-07-11T07:01:14;4.38;;;1.70;;
39256;SDS011;24958;48.066;11.038;2022-07-11T07:03:40;1.45;;;1.35;;
39256;SDS011;24958;48.066;11.038;2022-07-11T07:06:09;2.65;;;1.42;;
39256;SDS011;24958;48.066;11.038;2022-07-11T07:08:36;2.33;;;1.13;;
39256;SDS011;24958;48.066;11.038;2022-07-11T07:11:02;1.67;;;1.10;;
39256;SDS011;24958;48.066;11.038;2022-07-11T07:13:28;2.83;;;1.38;;
39256;SDS011;24958;48.066;11.038;2022-07-11T07:15:55;1.52;;;1.05;;
39256;SDS011;24958;48.066;11.038;2022-07-11T07:18:22;1.00;;;0.90;;
39256;SDS011;24958;48.066;11.038;2022-07-11T07:20:49;1.88;;;0.98;;
39256;SDS011;24958;48.066;11.038;2022-07-11T07:23:15;4.60;;;1.23;;
39256;SDS011;24958;48.066;11.038;2022-07-11T07:25:41;1.38;;;1.00;;
39256;SDS011;24958;48.066;11.038;2022-07-11T07:28:07;1.10;;;0.98;;
39256;SDS011;24958;48.066;11.038;2022-07-11T07:30:33;1.65;;;1.10;;
39256;SDS011;24958;48.066;11.038;2022-07-11T07:32:59;1.40;;;1.02;;
39256;SDS011;24958;48.066;11.038;2022-07-11T07:35:26;1.48;;;1.10;;
39256;SDS011;24958;48.066;11.038;2022-07-11T07:37:52;1.67;;;0.80;;
39256;SDS011;24958;48.066;11.038;2022-07-11T07:40:18;1.98;;;1.23;;
39256;SDS011;24958;48.066;11.038;2022-07-11T07:42:44;1.30;;;0.70;;
39256;SDS011;24958;48.066;11.038;2022-07-11T07:45:10;2.53;;;0.90;;
39256;SDS011;24958;48.066;11.038;2022-07-11T07:47:36;1.05;;;0.80;;
39256;SDS011;24958;48.066;11.038;2022-07-11T07:50:04;0.90;;;0.88;;
39256;SDS011;24958;48.066;11.038;2022-07-11T07:52:30;1.98;;;1.13;;
39256;SDS011;24958;48.066;11.038;2022-07-11T07:54:56;0.88;;;0.88;;
39256;SDS011;24958;48.066;11.038;2022-07-11T07:57:22;1.00;;;0.88;;
39256;SDS011;24958;48.066;11.038;2022-07-11T07:59:48;1.00;;;0.80;;
39256;SDS011;24958;48.066;11.038;2022-07-11T08:02:14;1.05;;;0.80;;
39256;SDS011;24958;48.066;11.038;2022-07-11T08:04:40;0.95;;;0.70;;
39256;SDS011;24958;48.066;11.038;2022-07-11T08:07:06;1.55;;;0.80;;
39256;SDS011;24958;48.066;11.038;2022-07-11T08:09:32;0.88;;;0.80;;
39256;SDS011;24958;48.066;11.038;2022-07-11T08:11:59;1.05;;;0.60;;
39256;SDS011;24958;48.066;11.038;2022-07-11T08:14:24;0.68;;;0.68;;
39256;SDS011;24958;48.066;11.038;2022-07-11T08:16:50;0.88;;;0.70;;
39256;SDS011;24958;48.066;11.038;2022-07-11T08:19:16;0.60;;;0.60;;
39256;SDS011;24958;48.066;11.038;2022-07-11T08:21:42;0.65;;;0.60;;
39256;SDS011;24958;48.066;11.038;2022-07-11T08:24:08;0.60;;;0.60;;
39256;SDS011;24958;48.066;11.038;2022-07-11T08:26:34;1.40;;;0.60;;
39256;SDS011;24958;48.066;11.038;2022-07-11T08:29:01;0.80;;;0.60;;
39256;SDS011;24958;48.066;11.038;2022-07-11T08:31:28;0.60;;;0.50;;
39256;SDS011;24958;48.066;11.038;2022-07-11T08:33:54;0.52;;;0.52;;
39256;SDS011;24958;48.066;11.038;2022-07-11T08:36:22;0.57;;;0.57;;
39256;SDS011;24958;48.066;11.038;2022-07-11T08:38:48;1.00;;;0.60;;
39256;SDS011;24958;48.066;11.038;2022-07-11T08:41:14;0.88;;;0.60;;
39256;SDS011;24958;48.066;11.038;2022-07-11T08:43:41;0.50;;;0.50;;
39256;SDS011;24958;48.066;11.038;2022-07-11T08:46:09;0.52;;;0.50;;
39256;SDS011;24958;48.066;11.038;2022-07-11T08:48:35;0.60;;;0.60;;
39256;SDS011;24958;48.066;11.038;2022-07-11T08:51:03;0.65;;;0.65;;
39256;SDS011;24958;48.066;11.038;2022-07-11T08:53:31;0.60;;;0.60;;
39256;SDS011;24958;48.066;11.038;2022-07-11T08:55:59;0.77;;;0.60;;
39256;SDS011;24958;48.066;11.038;2022-07-11T08:58:25;0.70;;;0.70;;
39256;SDS011;24958;48.066;11.038;2022-07-11T09:00:51;0.70;;;0.70;;
39256;SDS011;24958;48.066;11.038;2022-07-11T09:03:17;0.77;;;0.70;;
39256;SDS011;24958;48.066;11.038;2022-07-11T09:05:44;0.70;;;0.70;;
39256;SDS011;24958;48.066;11.038;2022-07-11T09:08:10;0.75;;;0.70;;
39256;SDS011;24958;48.066;11.038;2022-07-11T09:10:39;0.63;;;0.63;;
39256;SDS011;24958;48.066;11.038;2022-07-11T09:13:05;1.15;;;0.90;;
39256;SDS011;24958;48.066;11.038;2022-07-11T09:17:58;0.63;;;0.63;;
39256;SDS011;24958;48.066;11.038;2022-07-11T09:20:24;2.42;;;0.70;;
39256;SDS011;24958;48.066;11.038;2022-07-11T09:22:50;1.90;;;0.70;;
39256;SDS011;24958;48.066;11.038;2022-07-11T09:25:41;0.73;;;0.60;;
39256;SDS011;24958;48.066;11.038;2022-07-11T09:28:07;0.50;;;0.50;;
39256;SDS011;24958;48.066;11.038;2022-07-11T09:33:04;0.85;;;0.70;;
39256;SDS011;24958;48.066;11.038;2022-07-11T09:35:31;0.82;;;0.70;;
39256;SDS011;24958;48.066;11.038;2022-07-11T09:37:58;1.27;;;0.80;;
39256;SDS011;24958;48.066;11.038;2022-07-11T09:40:27;0.60;;;0.60;;
39256;SDS011;24958;48.066;11.038;2022-07-11T09:42:54;0.80;;;0.70;;
39256;SDS011;24958;48.066;11.038;2022-07-11T09:45:21;0.57;;;0.57;;
39256;SDS011;24958;48.066;11.038;2022-07-11T09:47:49;0.82;;;0.60;;
39256;SDS011;24958;48.066;11.038;2022-07-11T09:50:17;0.70;;;0.70;;
39256;SDS011;24958;48.066;11.038;2022-07-11T09:52:45;0.60;;;0.60;;
39256;SDS011;24958;48.066;11.038;2022-07-11T09:55:23;1.15;;;0.77;;
39256;SDS011;24958;48.066;11.038;2022-07-11T09:57:49;2.00;;;1.02;;
39256;SDS011;24958;48.066;11.038;2022-07-11T10:00:15;1.10;;;0.95;;
39256;SDS011;24958;48.066;11.038;2022-07-11T10:02:41;0.80;;;0.80;;
39256;SDS011;24958;48.066;11.038;2022-07-11T10:05:07;1.48;;;1.00;;
39256;SDS011;24958;48.066;11.038;2022-07-11T10:07:33;1.15;;;0.88;;
39256;SDS011;24958;48.066;11.038;2022-07-11T10:10:00;1.77;;;0.70;;
39256;SDS011;24958;48.066;11.038;2022-07-11T10:12:26;1.35;;;0.90;;
39256;SDS011;24958;48.066;11.038;2022-07-11T10:14:54;1.15;;;0.80;;
39256;SDS011;24958;48.066;11.038;2022-07-11T10:17:24;2.55;;;0.95;;
39256;SDS011;24958;48.066;11.038;2022-07-11T10:25:11;1.20;;;0.73;;
39256;SDS011;24958;48.066;11.038;2022-07-11T10:27:42;1.10;;;1.00;;
39256;SDS011;24958;48.066;11.038;2022-07-11T10:30:13;1.02;;;0.90;;
39256;SDS011;24958;48.066;11.038;2022-07-11T10:32:57;1.13;;;0.70;;
39256;SDS011;24958;48.066;11.038;2022-07-11T10:35:24;0.77;;;0.77;;
39256;SDS011;24958;48.066;11.038;2022-07-11T10:37:52;0.77;;;0.77;;
39256;SDS011;24958;48.066;11.038;2022-07-11T10:43:03;0.75;;;0.70;;
39256;SDS011;24958;48.066;11.038;2022-07-11T10:45:29;1.50;;;0.70;;
39256;SDS011;24958;48.066;11.038;2022-07-11T10:48:14;1.30;;;0.68;;
39256;SDS011;24958;48.066;11.038;2022-07-11T10:50:40;1.65;;;0.77;;
39256;SDS011;24958;48.066;11.038;2022-07-11T10:53:07;0.93;;;0.70;;
39256;SDS011;24958;48.066;11.038;2022-07-11T10:55:35;1.23;;;0.70;;
39256;SDS011;24958;48.066;11.038;2022-07-11T11:00:30;1.02;;;0.77;;
39256;SDS011;24958;48.066;11.038;2022-07-11T11:03:04;0.63;;;0.60;;
39256;SDS011;24958;48.066;11.038;2022-07-11T11:05:49;0.57;;;0.57;;
39256;SDS011;24958;48.066;11.038;2022-07-11T11:11:05;0.90;;;0.50;;
39256;SDS011;24958;48.066;11.038;2022-07-11T11:13:32;1.23;;;0.80;;
39256;SDS011;24958;48.066;11.038;2022-07-11T11:16:00;0.50;;;0.50;;
39256;SDS011;24958;48.066;11.038;2022-07-11T11:18:30;0.70;;;0.70;;
39256;SDS011;24958;48.066;11.038;2022-07-11T11:25:54;0.70;;;0.60;;
39256;SDS011;24958;48.066;11.038;2022-07-11T11:28:20;0.50;;;0.50;;
39256;SDS011;24958;48.066;11.038;2022-07-11T11:30:53;0.50;;;0.50;;
39256;SDS011;24958;48.066;11.038;2022-07-11T11:33:19;0.52;;;0.52;;
39256;SDS011;24958;48.066;11.038;2022-07-11T11:35:47;0.65;;;0.65;;
39256;SDS011;24958;48.066;11.038;2022-07-11T11:38:23;0.60;;;0.60;;
39256;SDS011;24958;48.066;11.038;2022-07-11T11:40:49;0.68;;;0.60;;
39256;SDS011;24958;48.066;11.038;2022-07-11T11:43:21;0.73;;;0.65;;
39256;SDS011;24958;48.066;11.038;2022-07-11T11:45:52;0.70;;;0.63;;
39256;SDS011;24958;48.066;11.038;2022-07-11T11:48:32;0.70;;;0.70;;
39256;SDS011;24958;48.066;11.038;2022-07-11T11:53:27;0.93;;;0.70;;
39256;SDS011;24958;48.066;11.038;2022-07-11T11:55:54;1.63;;;0.60;;
39256;SDS011;24958;48.066;11.038;2022-07-11T11:58:20;0.70;;;0.70;;
39256;SDS011;24958;48.066;11.038;2022-07-11T12:00:53;0.80;;;0.70;;
39256;SDS011;24958;48.066;11.038;2022-07-11T12:03:19;0.60;;;0.60;;
39256;SDS011;24958;48.066;11.038;2022-07-11T12:05:58;1.50;;;0.68;;
39256;SDS011;24958;48.066;11.038;2022-07-11T12:08:25;0.80;;;0.80;;
39256;SDS011;24958;48.066;11.038;2022-07-11T12:10:54;0.60;;;0.60;;
39256;SDS011;24958;48.066;11.038;2022-07-11T12:13:20;1.50;;;0.70;;
39256;SDS011;24958;48.066;11.038;2022-07-11T12:15:46;0.70;;;0.68;;
39256;SDS011;24958;48.066;11.038;2022-07-11T12:18:44;0.70;;;0.70;;
39256;SDS011;24958;48.066;11.038;2022-07-11T12:21:14;0.70;;;0.70;;
39256;SDS011;24958;48.066;11.038;2022-07-11T12:23:40;0.70;;;0.60;;
39256;SDS011;24958;48.066;11.038;2022-07-11T12:26:06;0.60;;;0.60;;
39256;SDS011;24958;48.066;11.038;2022-07-11T12:28:32;0.60;;;0.60;;
39256;SDS011;24958;48.066;11.038;2022-07-11T12:30:58;0.77;;;0.77;;
39256;SDS011;24958;48.066;11.038;2022-07-11T12:33:25;0.95;;;0.60;;
39256;SDS011;24958;48.066;11.038;2022-07-11T12:35:55;0.60;;;0.60;;
39256;SDS011;24958;48.066;11.038;2022-07-11T12:38:21;0.77;;;0.70;;
39256;SDS011;24958;48.066;11.038;2022-07-11T12:40:57;0.70;;;0.70;;
39256;SDS011;24958;48.066;11.038;2022-07-11T12:43:39;0.60;;;0.60;;
39256;SDS011;24958;48.066;11.038;2022-07-11T12:46:24;0.70;;;0.60;;
39256;SDS011;24958;48.066;11.038;2022-07-11T12:48:50;0.77;;;0.70;;
39256;SDS011;24958;48.066;11.038;2022-07-11T12:51:36;0.60;;;0.60;;
39256;SDS011;24958;48.066;11.038;2022-07-11T12:54:06;0.73;;;0.70;;
39256;SDS011;24958;48.066;11.038;2022-07-11T12:56:33;0.90;;;0.80;;
39256;SDS011;24958;48.066;11.038;2022-07-11T12:58:59;0.98;;;0.90;;
39256;SDS011;24958;48.066;11.038;2022-07-11T13:01:26;0.82;;;0.70;;
39256;SDS011;24958;48.066;11.038;2022-07-11T13:03:52;1.05;;;0.77;;
39256;SDS011;24958;48.066;11.038;2022-07-11T13:06:19;0.70;;;0.70;;
39256;SDS011;24958;48.066;11.038;2022-07-11T13:09:04;1.27;;;0.80;;
39256;SDS011;24958;48.066;11.038;2022-07-11T13:11:30;0.80;;;0.70;;
39256;SDS011;24958;48.066;11.038;2022-07-11T13:13:56;1.35;;;0.70;;
39256;SDS011;24958;48.066;11.038;2022-07-11T13:16:23;0.75;;;0.75;;
39256;SDS011;24958;48.066;11.038;2022-07-11T13:18:49;0.80;;;0.80;;
39256;SDS011;24958;48.066;11.038;2022-07-11T13:21:15;0.80;;;0.80;;
39256;SDS011;24958;48.066;11.038;2022-07-11T13:23:41;0.80;;;0.80;;
39256;SDS011;24958;48.066;11.038;2022-07-11T13:26:08;0.80;;;0.80;;
39256;SDS011;24958;48.066;11.038;2022-07-11T13:28:34;0.98;;;0.80;;
39256;SDS011;24958;48.066;11.038;2022-07-11T13:31:00;1.92;;;0.88;;
39256;SDS011;24958;48.066;11.038;2022-07-11T13:33:30;1.10;;;1.00;;
39256;SDS011;24958;48.066;11.038;2022-07-11T13:35:56;0.95;;;0.90;;
39256;SDS011;24958;48.066;11.038;2022-07-11T13:38:22;1.02;;;0.85;;
39256;SDS011;24958;48.066;11.038;2022-07-11T13:40:48;0.80;;;0.80;;
39256;SDS011;24958;48.066;11.038;2022-07-11T13:43:14;1.48;;;0.88;;
39256;SDS011;24958;48.066;11.038;2022-07-11T13:45:41;1.15;;;0.80;;
39256;SDS011;24958;48.066;11.038;2022-07-11T13:48:09;1.02;;;0.75;;
39256;SDS011;24958;48.066;11.038;2022-07-11T13:50:35;0.85;;;0.80;;
39256;SDS011;24958;48.066;11.038;2022-07-11T13:53:01;0.98;;;0.88;;
39256;SDS011;24958;48.066;11.038;2022-07-11T13:55:27;0.95;;;0.85;;
39256;SDS011;24958;48.066;11.038;2022-07-11T13:57:56;0.90;;;0.90;;
39256;SDS011;24958;48.066;11.038;2022-07-11T14:00:23;1.10;;;1.00;;
39256;SDS011;24958;48.066;11.038;2022-07-11T14:02:49;1.20;;;1.10;;
39256;SDS011;24958;48.066;11.038;2022-07-11T14:05:16;1.77;;;0.90;;
39256;SDS011;24958;48.066;11.038;2022-07-11T14:07:43;0.93;;;0.90;;
39256;SDS011;24958;48.066;11.038;2022-07-11T14:10:09;0.82;;;0.82;;
39256;SDS011;24958;48.066;11.038;2022-07-11T14:12:35;2.05;;;1.00;;
39256;SDS011;24958;48.066;11.038;2022-07-11T14:15:01;0.85;;;0.85;;
39256;SDS011;24958;48.066;11.038;2022-07-11T14:17:27;1.88;;;0.90;;
39256;SDS011;24958;48.066;11.038;2022-07-11T14:19:54;1.48;;;1.10;;
39256;SDS011;24958;48.066;11.038;2022-07-11T14:22:22;2.85;;;0.80;;
39256;SDS011;24958;48.066;11.038;2022-07-11T14:24:47;1.08;;;1.00;;
39256;SDS011;24958;48.066;11.038;2022-07-11T14:27:14;0.80;;;0.80;;
39256;SDS011;24958;48.066;11.038;2022-07-11T14:29:40;1.10;;;1.02;;
39256;SDS011;24958;48.066;11.038;2022-07-11T14:32:15;1.00;;;0.90;;
39256;SDS011;24958;48.066;11.038;2022-07-11T14:34:45;1.42;;;0.93;;
39256;SDS011;24958;48.066;11.038;2022-07-11T14:37:10;1.60;;;1.17;;
39256;SDS011;24958;48.066;11.038;2022-07-11T14:39:39;1.67;;;1.10;;
39256;SDS011;24958;48.066;11.038;2022-07-11T14:42:05;1.80;;;0.90;;
39256;SDS011;24958;48.066;11.038;2022-07-11T14:44:32;1.58;;;1.10;;
39256;SDS011;24958;48.066;11.038;2022-07-11T14:46:58;1.10;;;1.00;;
39256;SDS011;24958;48.066;11.038;2022-07-11T14:49:24;1.48;;;1.00;;
39256;SDS011;24958;48.066;11.038;2022-07-11T14:51:51;3.10;;;1.00;;
39256;SDS011;24958;48.066;11.038;2022-07-11T14:54:17;1.20;;;1.10;;
39256;SDS011;24958;48.066;11.038;2022-07-11T14:56:43;0.98;;;0.90;;
39256;SDS011;24958;48.066;11.038;2022-07-11T14:59:09;0.82;;;0.82;;